sensor_id;sensor_type;location;lat;lon;timestamp;pressure;altitude;pressure_sealevel;temperature;humidity
58385;BME280;44185;47.844;8.966;2022-09-24T00:01:35;95964.00;;;10.16;100.00
58385;BME280;44185;47.844;8.966;2022-09-24T00:04:03;95962.31;;;10.15;100.00
58385;BME280;44185;47.844;8.966;2022-09-24T00:06:34;95967.03;;;10.11;100.00
58385;BME280;44185;47.844;8.966;2022-09-24T00:09:00;95961.22;;;10.08;100.00
58385;BME280;44185;47.844;8.966;2022-09-24T00:11:26;95963.16;;;10.16;100.00
58385;BME280;44185;47.844;8.966;2022-09-24T00:13:53;95952.03;;;10.22;100.00
58385;BME280;44185;47.844;8.966;2022-09-24T00:16:22;95953.00;;;10.21;100.00
58385;BME280;44185;47.844;8.966;2022-09-24T00:18:48;95946.59;;;10.14;100.00
58385;BME280;44185;47.844;8.966;2022-09-24T00:21:16;95949.63;;;10.09;100.00
58385;BME280;44185;47.844;8.966;2022-09-24T00:23:42;95943.66;;;10.07;100.00
58385;BME280;44185;47.844;8.966;2022-09-24T00:26:11;95937.28;;;10.19;100.00
58385;BME280;44185;47.844;8.966;2022-09-24T00:28:37;95929.34;;;10.19;100.00
58385;BME280;44185;47.844;8.966;2022-09-24T00:31:04;95936.72;;;10.06;100.00
58385;BME280;44185;47.844;8.966;2022-09-24T00:33:32;95934.19;;;10.04;100.00
58385;BME280;44185;47.844;8.966;2022-09-24T00:35:58;95936.00;;;10.04;100.00
58385;BME280;44185;47.844;8.966;2022-09-24T00:38:23;95930.00;;;10.01;100.00
58385;BME280;44185;47.844;8.966;2022-09-24T00:40:49;95929.91;;;10.03;100.00
58385;BME280;44185;47.844;8.966;2022-09-24T00:43:25;95924.19;;;10.08;100.00
58385;BME280;44185;47.844;8.966;2022-09-24T00:45:51;95918.47;;;10.03;100.00
58385;BME280;44185;47.844;8.966;2022-09-24T00:48:19;95911.41;;;10.03;100.00
58385;BME280;44185;47.844;8.966;2022-09-24T00:50:46;95911.94;;;10.07;100.00
58385;BME280;44185;47.844;8.966;2022-09-24T00:53:15;95907.47;;;9.97;100.00
58385;BME280;44185;47.844;8.966;2022-09-24T00:55:43;95910.81;;;9.99;100.00
58385;BME280;44185;47.844;8.966;2022-09-24T00:58:11;95912.63;;;9.99;100.00
58385;BME280;44185;47.844;8.966;2022-09-24T01:00:38;95908.59;;;9.95;100.00
58385;BME280;44185;47.844;8.966;2022-09-24T01:03:06;95910.97;;;9.98;100.00
58385;BME280;44185;47.844;8.966;2022-09-24T01:05:33;95903.47;;;10.03;100.00
58385;BME280;44185;47.844;8.966;2022-09-24T01:08:01;95890.78;;;10.07;100.00
58385;BME280;44185;47.844;8.966;2022-09-24T01:10:35;95902.78;;;10.11;100.00
58385;BME280;44185;47.844;8.966;2022-09-24T01:13:11;95893.56;;;10.15;100.00
58385;BME280;44185;47.844;8.966;2022-09-24T01:15:46;95892.31;;;10.19;100.00
58385;BME280;44185;47.844;8.966;2022-09-24T01:18:16;95890.41;;;10.21;100.00
58385;BME280;44185;47.844;8.966;2022-09-24T01:20:58;95882.31;;;10.23;100.00
58385;BME280;44185;47.844;8.966;2022-09-24T01:23:51;95872.16;;;10.28;100.00
58385;BME280;44185;47.844;8.966;2022-09-24T01:26:37;95875.91;;;10.16;100.00
58385;BME280;44185;47.844;8.966;2022-09-24T01:29:28;95876.34;;;10.21;100.00
58385;BME280;44185;47.844;8.966;2022-09-24T01:31:58;95877.16;;;10.21;100.00
58385;BME280;44185;47.844;8.966;2022-09-24T01:34:26;95861.41;;;10.30;100.00
58385;BME280;44185;47.844;8.966;2022-09-24T01:36:55;95874.91;;;10.17;100.00
58385;BME280;44185;47.844;8.966;2022-09-24T01:39:23;95873.69;;;10.11;100.00
58385;BME280;44185;47.844;8.966;2022-09-24T01:41:49;95871.72;;;10.13;100.00
58385;BME280;44185;47.844;8.966;2022-09-24T01:44:15;95887.44;;;10.15;100.00
58385;BME280;44185;47.844;8.966;2022-09-24T01:46:42;95896.06;;;10.17;100.00
58385;BME280;44185;47.844;8.966;2022-09-24T01:49:08;95894.69;;;10.12;100.00
58385;BME280;44185;47.844;8.966;2022-09-24T01:51:37;95897.59;;;10.19;100.00
58385;BME280;44185;47.844;8.966;2022-09-24T01:54:08;95911.53;;;10.21;100.00
58385;BME280;44185;47.844;8.966;2022-09-24T01:56:39;95911.25;;;10.24;100.00
58385;BME280;44185;47.844;8.966;2022-09-24T01:59:15;95906.38;;;10.20;100.00
58385;BME280;44185;47.844;8.966;2022-09-24T02:01:47;95909.44;;;10.25;100.00
58385;BME280;44185;47.844;8.966;2022-09-24T02:04:17;95902.91;;;10.39;100.00
58385;BME280;44185;47.844;8.966;2022-09-24T02:06:49;95901.66;;;10.33;100.00
58385;BME280;44185;47.844;8.966;2022-09-24T02:09:32;95895.13;;;10.38;100.00
58385;BME280;44185;47.844;8.966;2022-09-24T02:12:02;95897.75;;;10.28;100.00
58385;BME280;44185;47.844;8.966;2022-09-24T02:14:31;95893.72;;;10.23;100.00
58385;BME280;44185;47.844;8.966;2022-09-24T02:17:02;95894.69;;;10.12;100.00
58385;BME280;44185;47.844;8.966;2022-09-24T02:19:29;95869.78;;;10.25;100.00
58385;BME280;44185;47.844;8.966;2022-09-24T02:21:58;95870.88;;;10.22;100.00
58385;BME280;44185;47.844;8.966;2022-09-24T02:24:29;95865.06;;;10.29;100.00
58385;BME280;44185;47.844;8.966;2022-09-24T02:26:58;95861.13;;;10.33;100.00
58385;BME280;44185;47.844;8.966;2022-09-24T02:29:23;95874.25;;;10.34;100.00
58385;BME280;44185;47.844;8.966;2022-09-24T02:31:51;95869.63;;;10.37;100.00
58385;BME280;44185;47.844;8.966;2022-09-24T02:34:25;95873.53;;;10.42;100.00
58385;BME280;44185;47.844;8.966;2022-09-24T02:36:54;95866.84;;;10.48;100.00
58385;BME280;44185;47.844;8.966;2022-09-24T02:39:21;95866.28;;;10.44;100.00
58385;BME280;44185;47.844;8.966;2022-09-24T02:41:48;95850.16;;;10.48;100.00
58385;BME280;44185;47.844;8.966;2022-09-24T02:44:14;95850.41;;;10.44;100.00
58385;BME280;44185;47.844;8.966;2022-09-24T02:46:40;95850.69;;;10.41;100.00
58385;BME280;44185;47.844;8.966;2022-09-24T02:49:06;95851.28;;;10.35;100.00
58385;BME280;44185;47.844;8.966;2022-09-24T02:51:33;95846.66;;;10.47;100.00
58385;BME280;44185;47.844;8.966;2022-09-24T02:53:58;95850.69;;;10.41;100.00
58385;BME280;44185;47.844;8.966;2022-09-24T02:56:23;95837.75;;;10.38;100.00
58385;BME280;44185;47.844;8.966;2022-09-24T02:58:49;95848.06;;;10.41;100.00
58385;BME280;44185;47.844;8.966;2022-09-24T03:01:14;95838.75;;;10.37;100.00
58385;BME280;44185;47.844;8.966;2022-09-24T03:03:40;95849.59;;;10.34;100.00
58385;BME280;44185;47.844;8.966;2022-09-24T03:06:06;95850.72;;;10.31;100.00
58385;BME280;44185;47.844;8.966;2022-09-24T03:08:32;95843.47;;;10.33;100.00
58385;BME280;44185;47.844;8.966;2022-09-24T03:10:58;95837.50;;;10.31;100.00
58385;BME280;44185;47.844;8.966;2022-09-24T03:13:23;95837.63;;;10.30;100.00
58385;BME280;44185;47.844;8.966;2022-09-24T03:15:49;95842.91;;;10.30;100.00
58385;BME280;44185;47.844;8.966;2022-09-24T03:18:14;95837.34;;;10.33;100.00
58385;BME280;44185;47.844;8.966;2022-09-24T03:20:40;95838.59;;;10.29;100.00
58385;BME280;44185;47.844;8.966;2022-09-24T03:23:06;95828.00;;;10.39;100.00
58385;BME280;44185;47.844;8.966;2022-09-24T03:25:32;95825.91;;;10.32;100.00
58385;BME280;44185;47.844;8.966;2022-09-24T03:27:58;95830.25;;;10.33;100.00
58385;BME280;44185;47.844;8.966;2022-09-24T03:30:25;95824.84;;;10.35;100.00
58385;BME280;44185;47.844;8.966;2022-09-24T03:32:50;95825.78;;;10.34;100.00
58385;BME280;44185;47.844;8.966;2022-09-24T03:35:16;95826.06;;;10.41;100.00
58385;BME280;44185;47.844;8.966;2022-09-24T03:37:41;95825.78;;;10.44;100.00
58385;BME280;44185;47.844;8.966;2022-09-24T03:40:08;95827.44;;;10.45;100.00
58385;BME280;44185;47.844;8.966;2022-09-24T03:42:35;95824.13;;;10.43;100.00
58385;BME280;44185;47.844;8.966;2022-09-24T03:45:00;95813.53;;;10.43;100.00
58385;BME280;44185;47.844;8.966;2022-09-24T03:47:25;95825.94;;;10.42;100.00
58385;BME280;44185;47.844;8.966;2022-09-24T03:49:51;95813.81;;;10.30;100.00
58385;BME280;44185;47.844;8.966;2022-09-24T03:52:16;95805.63;;;10.23;100.00
58385;BME280;44185;47.844;8.966;2022-09-24T03:54:42;95811.59;;;10.25;100.00
58385;BME280;44185;47.844;8.966;2022-09-24T03:57:07;95807.56;;;10.31;100.00
58385;BME280;44185;47.844;8.966;2022-09-24T03:59:34;95813.97;;;10.28;100.00
58385;BME280;44185;47.844;8.966;2022-09-24T04:01:59;95811.44;;;10.37;100.00
58385;BME280;44185;47.844;8.966;2022-09-24T04:04:25;95815.91;;;10.36;100.00
58385;BME280;44185;47.844;8.966;2022-09-24T04:06:50;95805.31;;;10.36;100.00
58385;BME280;44185;47.844;8.966;2022-09-24T04:09:16;95813.94;;;10.38;100.00
58385;BME280;44185;47.844;8.966;2022-09-24T04:11:42;95811.88;;;10.42;100.00
58385;BME280;44185;47.844;8.966;2022-09-24T04:14:07;95812.56;;;10.44;100.00
58385;BME280;44185;47.844;8.966;2022-09-24T04:16:34;95816.59;;;10.38;100.00
58385;BME280;44185;47.844;8.966;2022-09-24T04:18:59;95809.50;;;10.39;100.00
58385;BME280;44185;47.844;8.966;2022-09-24T04:21:25;95808.53;;;10.40;100.00
58385;BME280;44185;47.844;8.966;2022-09-24T04:23:50;95806.16;;;10.37;100.00
58385;BME280;44185;47.844;8.966;2022-09-24T04:26:16;95814.38;;;10.33;100.00
58385;BME280;44185;47.844;8.966;2022-09-24T04:28:41;95811.88;;;10.32;100.00
58385;BME280;44185;47.844;8.966;2022-09-24T04:31:07;95804.75;;;10.32;100.00
58385;BME280;44185;47.844;8.966;2022-09-24T04:33:34;95813.41;;;10.34;100.00
58385;BME280;44185;47.844;8.966;2022-09-24T04:35:59;95813.41;;;10.34;100.00
58385;BME280;44185;47.844;8.966;2022-09-24T04:38:25;95808.81;;;10.37;100.00
58385;BME280;44185;47.844;8.966;2022-09-24T04:40:50;95818.00;;;10.42;100.00
58385;BME280;44185;47.844;8.966;2022-09-24T04:43:16;95823.81;;;10.46;100.00
58385;BME280;44185;47.844;8.966;2022-09-24T04:45:41;95826.19;;;10.49;100.00
58385;BME280;44185;47.844;8.966;2022-09-24T04:48:07;95825.94;;;10.52;100.00
58385;BME280;44185;47.844;8.966;2022-09-24T04:50:34;95825.09;;;10.52;100.00
58385;BME280;44185;47.844;8.966;2022-09-24T04:53:00;95829.25;;;10.44;100.00
58385;BME280;44185;47.844;8.966;2022-09-24T04:55:26;95837.75;;;10.48;100.00
58385;BME280;44185;47.844;8.966;2022-09-24T04:57:54;95840.53;;;10.46;100.00
58385;BME280;44185;47.844;8.966;2022-09-24T05:00:20;95840.41;;;10.48;100.00
58385;BME280;44185;47.844;8.966;2022-09-24T05:02:45;95842.66;;;10.53;100.00
58385;BME280;44185;47.844;8.966;2022-09-24T05:05:12;95843.63;;;10.52;100.00
58385;BME280;44185;47.844;8.966;2022-09-24T05:07:40;95840.25;;;10.50;100.00
58385;BME280;44185;47.844;8.966;2022-09-24T05:10:06;95829.25;;;10.54;100.00
58385;BME280;44185;47.844;8.966;2022-09-24T05:12:32;95843.75;;;10.60;100.00
58385;BME280;44185;47.844;8.966;2022-09-24T05:14:58;95837.88;;;10.56;100.00
58385;BME280;44185;47.844;8.966;2022-09-24T05:17:23;95843.50;;;10.53;100.00
58385;BME280;44185;47.844;8.966;2022-09-24T05:19:48;95844.19;;;10.55;100.00
58385;BME280;44185;47.844;8.966;2022-09-24T05:22:14;95839.41;;;10.59;100.00
58385;BME280;44185;47.844;8.966;2022-09-24T05:24:41;95839.28;;;10.61;100.00
58385;BME280;44185;47.844;8.966;2022-09-24T05:27:07;95847.50;;;10.57;100.00
58385;BME280;44185;47.844;8.966;2022-09-24T05:29:33;95852.38;;;10.62;100.00
58385;BME280;44185;47.844;8.966;2022-09-24T05:31:58;95851.81;;;10.68;100.00
58385;BME280;44185;47.844;8.966;2022-09-24T05:34:23;95855.13;;;10.71;100.00
58385;BME280;44185;47.844;8.966;2022-09-24T05:36:49;95847.19;;;10.71;100.00
58385;BME280;44185;47.844;8.966;2022-09-24T05:39:14;95850.00;;;10.69;100.00
58385;BME280;44185;47.844;8.966;2022-09-24T05:41:41;95863.06;;;10.71;100.00
58385;BME280;44185;47.844;8.966;2022-09-24T05:44:06;95855.97;;;10.71;100.00
58385;BME280;44185;47.844;8.966;2022-09-24T05:46:32;95864.75;;;10.72;100.00
58385;BME280;44185;47.844;8.966;2022-09-24T05:48:57;95864.59;;;10.73;100.00
58385;BME280;44185;47.844;8.966;2022-09-24T05:51:23;95864.75;;;10.72;100.00
58385;BME280;44185;47.844;8.966;2022-09-24T05:53:49;95864.03;;;10.70;100.00
58385;BME280;44185;47.844;8.966;2022-09-24T05:56:20;95866.28;;;10.74;100.00
58385;BME280;44185;47.844;8.966;2022-09-24T05:58:48;95864.75;;;10.72;100.00
58385;BME280;44185;47.844;8.966;2022-09-24T06:01:14;95865.16;;;10.77;100.00
58385;BME280;44185;47.844;8.966;2022-09-24T06:03:39;95867.22;;;10.83;100.00
58385;BME280;44185;47.844;8.966;2022-09-24T06:06:05;95872.66;;;10.82;100.00
58385;BME280;44185;47.844;8.966;2022-09-24T06:08:31;95866.50;;;10.91;100.00
58385;BME280;44185;47.844;8.966;2022-09-24T06:10:58;95859.41;;;10.92;100.00
58385;BME280;44185;47.844;8.966;2022-09-24T06:13:23;95865.25;;;10.95;100.00
58385;BME280;44185;47.844;8.966;2022-09-24T06:15:50;95868.31;;;11.00;100.00
58385;BME280;44185;47.844;8.966;2022-09-24T06:18:15;95866.91;;;10.96;100.00
58385;BME280;44185;47.844;8.966;2022-09-24T06:20:42;95865.66;;;11.00;100.00
58385;BME280;44185;47.844;8.966;2022-09-24T06:23:07;95864.25;;;11.06;100.00
58385;BME280;44185;47.844;8.966;2022-09-24T06:25:32;95868.41;;;11.09;100.00
58385;BME280;44185;47.844;8.966;2022-09-24T06:27:59;95870.34;;;11.07;100.00
58385;BME280;44185;47.844;8.966;2022-09-24T06:30:26;95866.47;;;11.11;100.00
58385;BME280;44185;47.844;8.966;2022-09-24T06:32:53;95869.38;;;11.08;100.00
58385;BME280;44185;47.844;8.966;2022-09-24T06:35:18;95877.03;;;11.11;100.00
58385;BME280;44185;47.844;8.966;2022-09-24T06:37:43;95874.53;;;11.09;100.00
58385;BME280;44185;47.844;8.966;2022-09-24T06:40:09;95876.47;;;11.17;100.00
58385;BME280;44185;47.844;8.966;2022-09-24T06:42:34;95885.94;;;11.20;100.00
58385;BME280;44185;47.844;8.966;2022-09-24T06:45:00;95887.03;;;11.27;100.00
58385;BME280;44185;47.844;8.966;2022-09-24T06:47:25;95890.25;;;11.21;100.00
58385;BME280;44185;47.844;8.966;2022-09-24T06:49:52;95877.69;;;11.23;100.00
58385;BME280;44185;47.844;8.966;2022-09-24T06:52:17;95889.69;;;11.27;100.00
58385;BME280;44185;47.844;8.966;2022-09-24T06:54:43;95896.34;;;11.31;100.00
58385;BME280;44185;47.844;8.966;2022-09-24T06:57:08;95893.56;;;11.33;100.00
58385;BME280;44185;47.844;8.966;2022-09-24T06:59:34;95892.03;;;11.30;100.00
58385;BME280;44185;47.844;8.966;2022-09-24T07:01:59;95887.94;;;11.36;100.00
58385;BME280;44185;47.844;8.966;2022-09-24T07:04:24;95884.03;;;11.40;100.00
58385;BME280;44185;47.844;8.966;2022-09-24T07:06:51;95875.94;;;11.42;100.00
58385;BME280;44185;47.844;8.966;2022-09-24T07:09:17;95880.13;;;11.44;100.00
58385;BME280;44185;47.844;8.966;2022-09-24T07:11:42;95878.84;;;11.49;100.00
58385;BME280;44185;47.844;8.966;2022-09-24T07:14:07;95883.16;;;11.50;100.00
58385;BME280;44185;47.844;8.966;2022-09-24T07:16:33;95889.84;;;11.54;100.00
58385;BME280;44185;47.844;8.966;2022-09-24T07:18:58;95893.19;;;11.56;100.00
58385;BME280;44185;47.844;8.966;2022-09-24T07:21:24;95892.03;;;11.59;100.00
58385;BME280;44185;47.844;8.966;2022-09-24T07:23:51;95895.53;;;11.59;100.00
58385;BME280;44185;47.844;8.966;2022-09-24T07:26:16;95884.50;;;11.64;100.00
58385;BME280;44185;47.844;8.966;2022-09-24T07:28:41;95893.81;;;11.68;100.00
58385;BME280;44185;47.844;8.966;2022-09-24T07:31:07;95895.31;;;11.71;100.00
58385;BME280;44185;47.844;8.966;2022-09-24T07:33:32;95903.44;;;11.69;100.00
58385;BME280;44185;47.844;8.966;2022-09-24T07:35:58;95895.19;;;11.72;100.00
58385;BME280;44185;47.844;8.966;2022-09-24T07:38:24;95906.88;;;11.79;100.00
58385;BME280;44185;47.844;8.966;2022-09-24T07:40:51;95900.22;;;11.65;100.00
58385;BME280;44185;47.844;8.966;2022-09-24T07:43:16;95903.13;;;11.72;100.00
58385;BME280;44185;47.844;8.966;2022-09-24T07:45:42;95907.84;;;11.78;100.00
58385;BME280;44185;47.844;8.966;2022-09-24T07:48:08;95913.00;;;11.80;100.00
58385;BME280;44185;47.844;8.966;2022-09-24T07:50:38;95908.38;;;11.82;100.00
58385;BME280;44185;47.844;8.966;2022-09-24T07:53:03;95907.84;;;11.78;100.00
58385;BME280;44185;47.844;8.966;2022-09-24T07:55:29;95908.28;;;11.74;100.00
58385;BME280;44185;47.844;8.966;2022-09-24T07:57:56;95909.22;;;11.83;100.00
58385;BME280;44185;47.844;8.966;2022-09-24T08:00:23;95911.03;;;11.82;100.00
58385;BME280;44185;47.844;8.966;2022-09-24T08:02:49;95909.13;;;11.74;100.00
58385;BME280;44185;47.844;8.966;2022-09-24T08:05:15;95903.09;;;11.82;100.00
58385;BME280;44185;47.844;8.966;2022-09-24T08:07:40;95911.47;;;11.77;100.00
58385;BME280;44185;47.844;8.966;2022-09-24T08:10:07;95903.34;;;11.89;100.00
58385;BME280;44185;47.844;8.966;2022-09-24T08:12:32;95907.94;;;11.87;100.00
58385;BME280;44185;47.844;8.966;2022-09-24T08:14:59;95912.88;;;12.00;100.00
58385;BME280;44185;47.844;8.966;2022-09-24T08:17:25;95908.88;;;11.96;100.00
58385;BME280;44185;47.844;8.966;2022-09-24T08:19:50;95915.50;;;11.82;100.00
58385;BME280;44185;47.844;8.966;2022-09-24T08:22:16;95917.19;;;11.83;100.00
58385;BME280;44185;47.844;8.966;2022-09-24T08:24:41;95923.72;;;11.88;100.00
58385;BME280;44185;47.844;8.966;2022-09-24T08:27:07;95916.16;;;11.84;100.00
58385;BME280;44185;47.844;8.966;2022-09-24T08:29:33;95920.16;;;11.98;100.00
58385;BME280;44185;47.844;8.966;2022-09-24T08:32:00;95913.25;;;12.05;100.00
58385;BME280;44185;47.844;8.966;2022-09-24T08:34:25;95914.78;;;12.08;100.00
58385;BME280;44185;47.844;8.966;2022-09-24T08:36:51;95921.19;;;12.15;100.00
58385;BME280;44185;47.844;8.966;2022-09-24T08:39:17;95914.47;;;12.11;100.00
58385;BME280;44185;47.844;8.966;2022-09-24T08:41:52;95925.94;;;12.11;100.00
58385;BME280;44185;47.844;8.966;2022-09-24T08:44:23;95921.66;;;12.00;100.00
58385;BME280;44185;47.844;8.966;2022-09-24T08:46:52;95925.53;;;12.06;100.00
58385;BME280;44185;47.844;8.966;2022-09-24T08:49:25;95929.88;;;12.07;100.00
58385;BME280;44185;47.844;8.966;2022-09-24T08:51:58;95921.75;;;12.09;100.00
58385;BME280;44185;47.844;8.966;2022-09-24T08:54:27;95928.19;;;12.06;100.00
58385;BME280;44185;47.844;8.966;2022-09-24T08:56:54;95928.03;;;12.08;100.00
58385;BME280;44185;47.844;8.966;2022-09-24T08:59:26;95933.63;;;12.15;100.00
58385;BME280;44185;47.844;8.966;2022-09-24T09:01:59;95927.06;;;12.09;100.00
58385;BME280;44185;47.844;8.966;2022-09-24T09:04:32;95928.03;;;12.18;100.00
58385;BME280;44185;47.844;8.966;2022-09-24T09:07:12;95934.84;;;12.20;100.00
58385;BME280;44185;47.844;8.966;2022-09-24T09:09:44;95924.91;;;12.22;100.00
58385;BME280;44185;47.844;8.966;2022-09-24T09:12:14;95926.97;;;12.29;100.00
58385;BME280;44185;47.844;8.966;2022-09-24T09:14:45;95924.47;;;12.27;100.00
58385;BME280;44185;47.844;8.966;2022-09-24T09:17:21;95930.81;;;12.34;100.00
58385;BME280;44185;47.844;8.966;2022-09-24T09:19:54;95926.97;;;12.29;100.00
58385;BME280;44185;47.844;8.966;2022-09-24T09:22:22;95930.91;;;12.25;100.00
58385;BME280;44185;47.844;8.966;2022-09-24T09:24:50;95930.38;;;12.39;100.00
58385;BME280;44185;47.844;8.966;2022-09-24T09:27:18;95924.75;;;12.42;100.00
58385;BME280;44185;47.844;8.966;2022-09-24T09:29:55;95927.78;;;12.48;100.00
58385;BME280;44185;47.844;8.966;2022-09-24T09:32:29;95923.31;;;12.48;100.00
58385;BME280;44185;47.844;8.966;2022-09-24T09:35:07;95926.06;;;12.56;100.00
58385;BME280;44185;47.844;8.966;2022-09-24T09:37:39;95920.81;;;12.65;100.00
58385;BME280;44185;47.844;8.966;2022-09-24T09:40:17;95926.41;;;12.80;100.00
58385;BME280;44185;47.844;8.966;2022-09-24T09:42:47;95922.13;;;12.87;100.00
58385;BME280;44185;47.844;8.966;2022-09-24T09:45:23;95925.88;;;12.76;100.00
58385;BME280;44185;47.844;8.966;2022-09-24T09:47:54;95918.47;;;12.62;100.00
58385;BME280;44185;47.844;8.966;2022-09-24T09:50:25;95917.41;;;12.54;100.00
58385;BME280;44185;47.844;8.966;2022-09-24T09:52:51;95921.66;;;12.65;100.00
58385;BME280;44185;47.844;8.966;2022-09-24T09:55:22;95916.78;;;12.79;100.00
58385;BME280;44185;47.844;8.966;2022-09-24T09:57:49;95913.44;;;13.04;100.00
58385;BME280;44185;47.844;8.966;2022-09-24T10:00:24;95917.41;;;13.26;100.00
58385;BME280;44185;47.844;8.966;2022-09-24T10:02:50;95915.25;;;13.30;100.00
58385;BME280;44185;47.844;8.966;2022-09-24T10:05:19;95910.44;;;13.25;100.00
58385;BME280;44185;47.844;8.966;2022-09-24T10:07:47;95905.06;;;13.17;100.00
58385;BME280;44185;47.844;8.966;2022-09-24T10:10:17;95910.34;;;13.08;100.00
58385;BME280;44185;47.844;8.966;2022-09-24T10:12:43;95911.53;;;13.14;100.00
58385;BME280;44185;47.844;8.966;2022-09-24T10:15:16;95907.09;;;13.23;100.00
58385;BME280;44185;47.844;8.966;2022-09-24T10:17:43;95911.75;;;12.94;100.00
58385;BME280;44185;47.844;8.966;2022-09-24T10:20:16;95906.63;;;13.01;100.00
58385;BME280;44185;47.844;8.966;2022-09-24T10:22:48;95911.50;;;13.06;100.00
58385;BME280;44185;47.844;8.966;2022-09-24T10:25:19;95913.72;;;12.92;100.00
58385;BME280;44185;47.844;8.966;2022-09-24T10:27:46;95911.25;;;12.99;100.00
58385;BME280;44185;47.844;8.966;2022-09-24T10:30:14;95912.88;;;12.92;100.00
58385;BME280;44185;47.844;8.966;2022-09-24T10:32:40;95906.63;;;13.01;100.00
58385;BME280;44185;47.844;8.966;2022-09-24T10:35:20;95912.16;;;13.08;100.00
58385;BME280;44185;47.844;8.966;2022-09-24T10:37:50;95906.53;;;13.11;100.00
58385;BME280;44185;47.844;8.966;2022-09-24T10:40:20;95907.31;;;13.03;100.00
58385;BME280;44185;47.844;8.966;2022-09-24T10:42:54;95903.78;;;12.94;100.00
58385;BME280;44185;47.844;8.966;2022-09-24T10:45:19;95902.94;;;12.94;100.00
58385;BME280;44185;47.844;8.966;2022-09-24T10:47:51;95905.53;;;13.12;100.00
58385;BME280;44185;47.844;8.966;2022-09-24T10:50:22;95896.38;;;13.06;100.00
58385;BME280;44185;47.844;8.966;2022-09-24T10:52:53;95896.94;;;13.18;100.00
58385;BME280;44185;47.844;8.966;2022-09-24T10:55:32;95884.69;;;13.26;100.00
58385;BME280;44185;47.844;8.966;2022-09-24T10:58:02;95898.22;;;13.14;100.00
58385;BME280;44185;47.844;8.966;2022-09-24T11:00:37;95904.28;;;13.24;100.00
58385;BME280;44185;47.844;8.966;2022-09-24T11:03:27;95904.56;;;13.13;100.00
58385;BME280;44185;47.844;8.966;2022-09-24T11:06:00;95906.50;;;13.03;100.00
58385;BME280;44185;47.844;8.966;2022-09-24T11:08:38;95902.16;;;13.01;100.00
58385;BME280;44185;47.844;8.966;2022-09-24T11:11:20;95897.44;;;13.14;100.00
58385;BME280;44185;47.844;8.966;2022-09-24T11:13:58;95904.81;;;13.01;100.00
58385;BME280;44185;47.844;8.966;2022-09-24T11:17:10;95902.88;;;12.85;100.00
58385;BME280;44185;47.844;8.966;2022-09-24T11:20:02;95910.16;;;12.83;100.00
58385;BME280;44185;47.844;8.966;2022-09-24T11:22:44;95897.97;;;12.99;100.00
58385;BME280;44185;47.844;8.966;2022-09-24T11:25:25;95898.28;;;12.96;100.00
58385;BME280;44185;47.844;8.966;2022-09-24T11:28:02;95894.44;;;13.17;100.00
58385;BME280;44185;47.844;8.966;2022-09-24T11:30:34;95883.34;;;13.21;100.00
58385;BME280;44185;47.844;8.966;2022-09-24T11:33:13;95891.78;;;13.17;100.00
58385;BME280;44185;47.844;8.966;2022-09-24T11:35:56;95892.84;;;13.32;100.00
58385;BME280;44185;47.844;8.966;2022-09-24T11:38:35;95889.38;;;13.32;100.00
58385;BME280;44185;47.844;8.966;2022-09-24T11:41:17;95884.38;;;13.29;100.00
58385;BME280;44185;47.844;8.966;2022-09-24T11:44:05;95875.38;;;13.21;100.00
58385;BME280;44185;47.844;8.966;2022-09-24T11:46:47;95877.97;;;13.40;100.00
58385;BME280;44185;47.844;8.966;2022-09-24T11:49:30;95876.63;;;13.44;100.00
58385;BME280;44185;47.844;8.966;2022-09-24T11:52:03;95879.97;;;13.46;100.00
58385;BME280;44185;47.844;8.966;2022-09-24T11:54:32;95879.03;;;13.55;100.00
58385;BME280;44185;47.844;8.966;2022-09-24T11:57:04;95877.41;;;13.63;100.00
58385;BME280;44185;47.844;8.966;2022-09-24T11:59:37;95871.81;;;13.74;100.00
58385;BME280;44185;47.844;8.966;2022-09-24T12:02:13;95855.00;;;13.74;100.00
58385;BME280;44185;47.844;8.966;2022-09-24T12:07:15;95864.84;;;13.82;100.00
58385;BME280;44185;47.844;8.966;2022-09-24T12:09:47;95861.97;;;13.75;100.00
58385;BME280;44185;47.844;8.966;2022-09-24T12:12:19;95855.31;;;13.62;100.00
58385;BME280;44185;47.844;8.966;2022-09-24T12:14:51;95852.81;;;13.61;100.00
58385;BME280;44185;47.844;8.966;2022-09-24T12:17:22;95845.69;;;13.61;100.00
58385;BME280;44185;47.844;8.966;2022-09-24T12:19:54;95847.53;;;13.69;100.00
58385;BME280;44185;47.844;8.966;2022-09-24T12:22:22;95848.34;;;13.70;100.00
58385;BME280;44185;47.844;8.966;2022-09-24T12:24:52;95849.31;;;13.60;100.00
58385;BME280;44185;47.844;8.966;2022-09-24T12:27:23;95843.38;;;13.75;100.00
58385;BME280;44185;47.844;8.966;2022-09-24T12:29:57;95850.69;;;13.73;100.00
58385;BME280;44185;47.844;8.966;2022-09-24T12:32:28;95842.69;;;13.73;100.00
58385;BME280;44185;47.844;8.966;2022-09-24T12:35:03;95842.19;;;13.61;100.00
58385;BME280;44185;47.844;8.966;2022-09-24T12:37:35;95841.38;;;13.68;100.00
58385;BME280;44185;47.844;8.966;2022-09-24T12:40:13;95841.16;;;13.62;100.00
58385;BME280;44185;47.844;8.966;2022-09-24T12:42:47;95835.19;;;13.60;100.00
58385;BME280;44185;47.844;8.966;2022-09-24T12:45:16;95839.34;;;13.62;100.00
58385;BME280;44185;47.844;8.966;2022-09-24T12:47:46;95838.75;;;13.77;100.00
58385;BME280;44185;47.844;8.966;2022-09-24T12:50:20;95832.09;;;13.81;100.00
58385;BME280;44185;47.844;8.966;2022-09-24T12:52:46;95832.06;;;13.73;100.00
58385;BME280;44185;47.844;8.966;2022-09-24T12:55:18;95828.59;;;13.81;100.00
58385;BME280;44185;47.844;8.966;2022-09-24T12:57:50;95820.97;;;13.86;100.00
58385;BME280;44185;47.844;8.966;2022-09-24T13:00:39;95827.78;;;13.88;100.00
58385;BME280;44185;47.844;8.966;2022-09-24T13:03:06;95823.00;;;14.00;100.00